createdAt,value
2018-01-14T00:00:45.678Z,19.76
2018-01-14T00:01:45.683Z,19.65
2018-01-14T00:02:45.670Z,19.71
2018-01-14T00:04:06.687Z,19.67
2018-01-14T00:04:45.670Z,19.60
2018-01-14T00:05:45.660Z,19.71
2018-01-14T00:06:45.647Z,19.64
2018-01-14T00:07:45.649Z,19.67
2018-01-14T00:08:45.661Z,19.65
2018-01-14T00:10:06.662Z,19.65
2018-01-14T00:10:45.660Z,19.70
2018-01-14T00:11:45.642Z,19.60
2018-01-14T00:12:45.638Z,19.64
2018-01-14T00:13:45.637Z,19.61
2018-01-14T00:14:45.657Z,19.67
2018-01-14T00:16:06.637Z,19.71
2018-01-14T00:16:45.631Z,19.67
2018-01-14T00:17:45.639Z,19.62
2018-01-14T00:18:45.642Z,19.60
2018-01-14T00:19:45.607Z,19.78
2018-01-14T00:20:45.624Z,19.67
2018-01-14T00:22:06.618Z,19.62
2018-01-14T00:22:45.611Z,19.64
2018-01-14T00:23:45.599Z,19.64
2018-01-14T00:24:45.602Z,19.60
2018-01-14T00:25:45.600Z,19.67
2018-01-14T00:26:45.596Z,19.60
2018-01-14T00:28:06.603Z,19.61
2018-01-14T00:28:45.591Z,19.50
2018-01-14T00:29:45.596Z,19.65
2018-01-14T00:30:45.582Z,19.57
2018-01-14T00:31:45.572Z,19.55
2018-01-14T00:32:45.571Z,19.60
2018-01-14T00:34:06.593Z,19.49
2018-01-14T00:34:45.565Z,19.52
2018-01-14T00:35:45.558Z,19.52
2018-01-14T00:36:45.553Z,19.50
2018-01-14T00:37:45.572Z,19.55
2018-01-14T00:38:45.555Z,19.60
2018-01-14T00:40:06.563Z,19.50
2018-01-14T00:40:45.557Z,19.57
2018-01-14T00:41:45.604Z,19.53
2018-01-14T00:42:45.534Z,19.55
2018-01-14T00:43:45.537Z,19.52
2018-01-14T00:44:45.541Z,19.47
2018-01-14T00:46:06.546Z,19.47
2018-01-14T00:46:45.550Z,19.58
2018-01-14T00:47:45.528Z,19.52
2018-01-14T00:48:45.520Z,19.53
2018-01-14T00:49:45.516Z,19.57
2018-01-14T00:50:45.511Z,19.55
2018-01-14T00:52:06.527Z,19.53
2018-01-14T00:52:45.509Z,19.60
2018-01-14T00:53:45.504Z,19.49
2018-01-14T00:54:45.512Z,19.53
2018-01-14T00:55:45.539Z,19.47
2018-01-14T00:56:45.508Z,19.42
2018-01-14T00:58:06.512Z,19.52
2018-01-14T00:58:45.483Z,19.52
2018-01-14T00:59:45.484Z,19.50
2018-01-14T01:00:45.481Z,19.55
2018-01-14T01:01:45.479Z,19.55
2018-01-14T01:02:45.466Z,19.49
2018-01-14T01:04:06.486Z,19.47
2018-01-14T01:04:45.469Z,19.57
2018-01-14T01:05:45.454Z,19.53
2018-01-14T01:06:45.471Z,19.53
2018-01-14T01:07:45.472Z,19.57
2018-01-14T01:08:45.453Z,19.55
2018-01-14T01:10:06.462Z,19.58
2018-01-14T01:10:45.448Z,19.70
2018-01-14T01:11:45.442Z,19.67
2018-01-14T01:12:45.442Z,19.72
2018-01-14T01:13:45.434Z,19.70
2018-01-14T01:14:45.423Z,19.76
2018-01-14T01:16:06.440Z,19.64
2018-01-14T01:16:45.426Z,19.76
2018-01-14T01:17:45.422Z,19.70
2018-01-14T01:18:45.423Z,19.78
2018-01-14T01:19:45.417Z,19.75
2018-01-14T01:20:45.427Z,19.79
2018-01-14T01:22:06.413Z,19.78
2018-01-14T01:22:45.399Z,19.80
2018-01-14T01:23:45.402Z,19.82
2018-01-14T01:24:45.401Z,19.80
2018-01-14T01:25:45.398Z,19.82
2018-01-14T01:26:45.379Z,19.80
2018-01-14T01:28:06.405Z,19.79
2018-01-14T01:28:45.379Z,19.86
2018-01-14T01:29:45.396Z,19.79
2018-01-14T01:30:45.367Z,19.86
2018-01-14T01:31:45.369Z,19.78
2018-01-14T01:32:45.372Z,19.80
2018-01-14T01:34:06.371Z,19.80
2018-01-14T01:34:45.362Z,19.78
2018-01-14T01:35:45.362Z,19.80
2018-01-14T01:36:45.357Z,19.82
2018-01-14T01:37:45.348Z,19.86
2018-01-14T01:38:45.352Z,19.78
2018-01-14T01:40:06.360Z,19.85
2018-01-14T01:40:45.333Z,19.83
2018-01-14T01:41:45.344Z,19.80
2018-01-14T01:42:45.346Z,19.85
2018-01-14T01:43:45.330Z,19.87
2018-01-14T01:44:45.331Z,19.79
2018-01-14T01:46:06.331Z,19.79
2018-01-14T01:46:45.309Z,19.79
2018-01-14T01:47:45.313Z,19.78
2018-01-14T01:48:45.310Z,19.82
2018-01-14T01:49:45.312Z,19.82
2018-01-14T01:50:45.300Z,19.85
2018-01-14T01:52:06.309Z,19.82
2018-01-14T01:52:45.319Z,19.76
2018-01-14T01:53:45.295Z,19.79
2018-01-14T01:54:45.288Z,19.75
2018-01-14T01:55:45.293Z,19.79
2018-01-14T01:56:45.299Z,19.80
2018-01-14T01:58:06.315Z,19.79
2018-01-14T01:58:45.283Z,19.83
2018-01-14T01:59:45.284Z,19.80
2018-01-14T02:00:45.264Z,19.79
2018-01-14T02:01:45.264Z,19.79
2018-01-14T02:02:45.267Z,19.80
2018-01-14T02:04:06.262Z,19.79
2018-01-14T02:04:45.264Z,19.72
2018-01-14T02:05:45.262Z,19.72
2018-01-14T02:06:45.254Z,19.79
2018-01-14T02:07:45.245Z,19.79
2018-01-14T02:08:45.248Z,19.79
2018-01-14T02:10:06.258Z,19.79
2018-01-14T02:10:45.240Z,19.79
2018-01-14T02:11:45.285Z,19.78
2018-01-14T02:12:45.244Z,19.71
2018-01-14T02:13:45.224Z,19.71
2018-01-14T02:14:45.234Z,19.70
2018-01-14T02:16:06.232Z,19.79
2018-01-14T02:16:45.224Z,19.79
2018-01-14T02:17:45.214Z,19.70
2018-01-14T02:18:45.214Z,19.61
2018-01-14T02:19:45.208Z,19.68
2018-01-14T02:20:45.208Z,19.70
2018-01-14T02:22:06.199Z,19.62
2018-01-14T02:22:45.198Z,19.70
2018-01-14T02:23:45.210Z,19.72
2018-01-14T02:24:45.192Z,19.68
2018-01-14T02:25:45.202Z,19.71
2018-01-14T02:26:45.188Z,19.71
2018-01-14T02:28:06.190Z,19.62
2018-01-14T02:28:45.180Z,19.70
2018-01-14T02:29:45.170Z,19.60
2018-01-14T02:30:45.179Z,19.65
2018-01-14T02:31:45.172Z,19.60
2018-01-14T02:32:45.154Z,19.68
2018-01-14T02:34:06.166Z,19.70
2018-01-14T02:34:45.161Z,19.65
2018-01-14T02:35:45.158Z,19.62
2018-01-14T02:36:45.160Z,19.68
2018-01-14T02:37:45.153Z,19.61
2018-01-14T02:38:45.139Z,19.58
2018-01-14T02:40:06.155Z,19.64
2018-01-14T02:40:45.137Z,19.65
2018-01-14T02:41:45.143Z,19.65
2018-01-14T02:42:45.128Z,19.64
2018-01-14T02:43:45.130Z,19.62
2018-01-14T02:44:45.125Z,19.71
2018-01-14T02:46:06.129Z,19.65
2018-01-14T02:46:45.119Z,19.61
2018-01-14T02:47:45.109Z,19.58
2018-01-14T02:48:45.114Z,19.55
2018-01-14T02:49:45.108Z,19.57
2018-01-14T02:50:45.113Z,19.68
2018-01-14T02:52:06.114Z,19.58
2018-01-14T02:52:45.093Z,19.62
2018-01-14T02:53:45.108Z,19.55
2018-01-14T02:54:45.091Z,19.62
2018-01-14T02:55:45.083Z,19.64
2018-01-14T02:56:45.081Z,19.58
2018-01-14T02:58:06.093Z,19.50
2018-01-14T02:58:45.073Z,19.53
2018-01-14T02:59:45.078Z,19.60
2018-01-14T03:00:45.084Z,19.57
2018-01-14T03:01:45.069Z,19.49
2018-01-14T03:02:45.064Z,19.60
2018-01-14T03:04:06.073Z,19.47
2018-01-14T03:04:45.054Z,19.49
2018-01-14T03:05:45.048Z,19.47
2018-01-14T03:06:45.063Z,19.49
2018-01-14T03:07:45.049Z,19.49
2018-01-14T03:08:45.039Z,19.53
2018-01-14T03:10:06.054Z,19.50
2018-01-14T03:10:45.038Z,19.50
2018-01-14T03:11:45.029Z,19.55
2018-01-14T03:12:45.030Z,19.50
2018-01-14T03:13:45.018Z,19.49
2018-01-14T03:14:45.023Z,19.57
2018-01-14T03:16:06.027Z,19.58
2018-01-14T03:16:45.019Z,19.53
2018-01-14T03:17:45.008Z,19.49
2018-01-14T03:18:45.012Z,19.49
2018-01-14T03:19:45.005Z,19.58
2018-01-14T03:20:45.001Z,19.53
2018-01-14T03:22:06.005Z,19.50
2018-01-14T03:22:45.000Z,19.53
2018-01-14T03:23:44.998Z,19.45
2018-01-14T03:24:44.981Z,19.58
2018-01-14T03:25:44.995Z,19.60
2018-01-14T03:26:44.975Z,19.53
2018-01-14T03:28:05.989Z,19.45
2018-01-14T03:28:44.984Z,19.50
2018-01-14T03:29:44.978Z,19.60
2018-01-14T03:30:44.974Z,19.52
2018-01-14T03:31:44.974Z,19.61
2018-01-14T03:32:44.956Z,19.62
2018-01-14T03:34:05.964Z,19.67
2018-01-14T03:34:44.959Z,19.53
2018-01-14T03:35:44.959Z,19.67
2018-01-14T03:36:44.961Z,19.67
2018-01-14T03:37:44.947Z,19.68
2018-01-14T03:38:44.948Z,19.78
2018-01-14T03:40:05.936Z,19.58
2018-01-14T03:40:44.940Z,19.70
2018-01-14T03:41:44.927Z,19.76
2018-01-14T03:42:44.927Z,19.76
2018-01-14T03:43:44.915Z,19.83
2018-01-14T03:44:44.920Z,19.80
2018-01-14T03:46:05.920Z,19.79
2018-01-14T03:46:44.910Z,19.79
2018-01-14T03:47:44.904Z,19.79
2018-01-14T03:48:44.904Z,19.76
2018-01-14T03:49:44.899Z,19.76
2018-01-14T03:50:44.899Z,19.85
2018-01-14T03:52:05.916Z,19.78
2018-01-14T03:52:44.886Z,19.78
2018-01-14T03:53:44.882Z,19.86
2018-01-14T03:54:44.887Z,19.80
2018-01-14T03:55:44.891Z,19.86
2018-01-14T03:56:44.876Z,19.83
2018-01-14T03:58:05.887Z,19.83
2018-01-14T03:58:44.871Z,19.83
2018-01-14T03:59:44.864Z,19.85
2018-01-14T04:00:44.869Z,19.79
2018-01-14T04:01:44.861Z,19.72
2018-01-14T04:02:44.850Z,19.79
2018-01-14T04:04:05.860Z,19.82
2018-01-14T04:04:44.861Z,19.82
2018-01-14T04:05:44.852Z,19.78
2018-01-14T04:06:44.840Z,19.75
2018-01-14T04:07:44.841Z,19.83
2018-01-14T04:08:44.837Z,19.80
2018-01-14T04:10:05.858Z,19.78
2018-01-14T04:10:44.831Z,19.94
2018-01-14T04:11:44.825Z,19.78
2018-01-14T04:12:44.826Z,19.83
2018-01-14T04:13:44.816Z,19.78
2018-01-14T04:14:44.822Z,19.75
2018-01-14T04:16:05.822Z,19.80
2018-01-14T04:16:44.806Z,19.75
2018-01-14T04:17:44.802Z,19.80
2018-01-14T04:18:44.800Z,19.70
2018-01-14T04:19:44.799Z,19.76
2018-01-14T04:20:44.799Z,19.83
2018-01-14T04:22:05.787Z,19.72
2018-01-14T04:22:44.789Z,19.78
2018-01-14T04:23:44.781Z,19.82
2018-01-14T04:24:44.784Z,19.75
2018-01-14T04:25:44.782Z,19.71
2018-01-14T04:26:44.775Z,19.78
2018-01-14T04:28:05.770Z,19.79
2018-01-14T04:28:44.770Z,19.79
2018-01-14T04:29:44.764Z,19.78
2018-01-14T04:30:44.760Z,19.71
2018-01-14T04:31:44.760Z,19.78
2018-01-14T04:32:44.766Z,19.75
2018-01-14T04:34:05.753Z,19.65
2018-01-14T04:34:44.762Z,19.76
2018-01-14T04:35:44.755Z,19.67
2018-01-14T04:36:44.745Z,19.71
2018-01-14T04:37:44.743Z,19.75
2018-01-14T04:38:44.736Z,19.76
2018-01-14T04:40:05.735Z,19.70
2018-01-14T04:40:44.726Z,19.70
2018-01-14T04:41:44.725Z,19.70
2018-01-14T04:42:44.724Z,19.65
2018-01-14T04:43:44.715Z,19.67
2018-01-14T04:44:44.715Z,19.67
2018-01-14T04:46:05.727Z,19.71
2018-01-14T04:46:44.707Z,19.64
2018-01-14T04:47:44.710Z,19.64
2018-01-14T04:48:44.706Z,19.65
2018-01-14T04:49:44.722Z,19.70
2018-01-14T04:50:44.695Z,19.70
2018-01-14T04:52:05.690Z,19.68
2018-01-14T04:52:44.682Z,19.62
2018-01-14T04:53:44.682Z,19.65
2018-01-14T04:54:44.681Z,19.62
2018-01-14T04:55:44.672Z,19.71
2018-01-14T04:56:44.665Z,19.58
2018-01-14T04:58:05.682Z,19.58
2018-01-14T04:58:44.669Z,19.65
2018-01-14T04:59:44.667Z,19.64
2018-01-14T05:00:44.657Z,19.60
2018-01-14T05:01:44.657Z,19.57
2018-01-14T05:02:44.656Z,19.65
2018-01-14T05:04:05.656Z,19.57
2018-01-14T05:04:44.645Z,19.62
2018-01-14T05:05:44.643Z,19.60
2018-01-14T05:06:44.638Z,19.61
2018-01-14T05:07:44.636Z,19.64
2018-01-14T05:08:44.635Z,19.57
2018-01-14T05:10:05.638Z,19.53
2018-01-14T05:10:44.631Z,19.57
2018-01-14T05:11:44.652Z,19.55
2018-01-14T05:12:44.648Z,19.47
2018-01-14T05:13:44.608Z,19.49
2018-01-14T05:14:44.617Z,19.55
2018-01-14T05:16:05.611Z,19.60
2018-01-14T05:16:44.607Z,19.57
2018-01-14T05:17:44.606Z,19.50
2018-01-14T05:18:44.598Z,19.49
2018-01-14T05:19:44.601Z,19.49
2018-01-14T05:20:44.597Z,19.55
2018-01-14T05:22:05.595Z,19.50
2018-01-14T05:22:44.591Z,19.61
2018-01-14T05:23:44.578Z,19.53
2018-01-14T05:24:44.577Z,19.50
2018-01-14T05:25:44.571Z,19.47
2018-01-14T05:26:44.578Z,19.53
2018-01-14T05:28:05.573Z,19.53
2018-01-14T05:28:44.562Z,19.53
2018-01-14T05:29:44.573Z,19.53
2018-01-14T05:30:44.562Z,19.50
2018-01-14T05:31:44.561Z,19.53
2018-01-14T05:32:44.553Z,19.55
2018-01-14T05:34:05.551Z,19.52
2018-01-14T05:34:44.543Z,19.50
2018-01-14T05:35:44.551Z,19.55
2018-01-14T05:36:44.538Z,19.50
2018-01-14T05:37:44.542Z,19.49
2018-01-14T05:38:44.533Z,19.49
2018-01-14T05:40:05.542Z,19.45
2018-01-14T05:40:44.523Z,19.52
2018-01-14T05:41:44.521Z,19.34
2018-01-14T05:42:44.521Z,19.47
2018-01-14T05:43:44.512Z,19.43
2018-01-14T05:44:44.517Z,19.39
2018-01-14T05:46:05.516Z,19.42
2018-01-14T05:46:44.504Z,19.45
2018-01-14T05:47:44.496Z,19.53
2018-01-14T05:48:44.491Z,19.53
2018-01-14T05:49:44.493Z,19.53
2018-01-14T05:50:44.494Z,19.53
2018-01-14T05:52:05.493Z,19.49
2018-01-14T05:52:44.483Z,19.55
2018-01-14T05:53:44.486Z,19.61
2018-01-14T05:54:44.479Z,19.62
2018-01-14T05:55:44.473Z,19.68
2018-01-14T05:56:44.469Z,19.61
2018-01-14T05:58:05.472Z,19.68
2018-01-14T05:58:44.458Z,19.71
2018-01-14T05:59:44.454Z,19.58
2018-01-14T06:00:44.462Z,19.72
2018-01-14T06:01:44.452Z,19.72
2018-01-14T06:02:44.451Z,19.78
2018-01-14T06:04:05.458Z,19.75
2018-01-14T06:04:44.442Z,19.71
2018-01-14T06:05:44.442Z,19.80
2018-01-14T06:06:44.431Z,19.75
2018-01-14T06:07:44.435Z,19.78
2018-01-14T06:08:44.428Z,19.80
2018-01-14T06:10:05.447Z,19.79
2018-01-14T06:10:44.417Z,19.83
2018-01-14T06:11:44.414Z,19.76
2018-01-14T06:12:44.421Z,19.82
2018-01-14T06:13:44.415Z,19.83
2018-01-14T06:14:44.408Z,19.87
2018-01-14T06:16:05.410Z,19.78
2018-01-14T06:16:44.409Z,19.79
2018-01-14T06:17:44.400Z,19.82
2018-01-14T06:18:44.384Z,19.80
2018-01-14T06:19:44.384Z,19.89
2018-01-14T06:20:44.390Z,19.82
2018-01-14T06:22:05.388Z,19.80
2018-01-14T06:22:44.387Z,19.80
2018-01-14T06:23:44.379Z,19.79
2018-01-14T06:24:44.369Z,19.79
2018-01-14T06:25:44.369Z,19.78
2018-01-14T06:26:44.363Z,19.83
2018-01-14T06:28:05.372Z,19.85
2018-01-14T06:28:44.358Z,19.80
2018-01-14T06:29:44.356Z,19.86
2018-01-14T06:30:44.350Z,19.82
2018-01-14T06:31:44.355Z,19.80
2018-01-14T06:32:44.348Z,19.83
2018-01-14T06:34:05.353Z,19.87
2018-01-14T06:34:44.338Z,19.76
2018-01-14T06:35:44.329Z,19.76
2018-01-14T06:36:44.333Z,19.78
2018-01-14T06:37:44.333Z,19.86
2018-01-14T06:38:44.328Z,19.82
2018-01-14T06:40:05.329Z,19.82
2018-01-14T06:40:44.327Z,19.80
2018-01-14T06:41:44.344Z,19.79
2018-01-14T06:42:44.307Z,19.79
2018-01-14T06:43:44.308Z,19.78
2018-01-14T06:44:44.304Z,19.90
2018-01-14T06:46:05.298Z,19.75
2018-01-14T06:46:44.310Z,19.75
2018-01-14T06:47:44.299Z,19.76
2018-01-14T06:48:44.303Z,19.83
2018-01-14T06:49:44.286Z,19.76
2018-01-14T06:50:44.295Z,19.75
2018-01-14T06:52:05.299Z,19.78
2018-01-14T06:52:44.274Z,19.78
2018-01-14T06:53:44.287Z,19.79
2018-01-14T06:54:44.269Z,19.79
2018-01-14T06:55:44.269Z,19.79
2018-01-14T06:56:44.267Z,19.76
2018-01-14T06:58:05.279Z,19.76
2018-01-14T06:58:44.260Z,19.65
2018-01-14T06:59:44.257Z,19.80
2018-01-14T07:00:44.253Z,19.75
2018-01-14T07:01:44.249Z,19.70
2018-01-14T07:02:44.263Z,19.80
2018-01-14T07:04:05.249Z,19.76
2018-01-14T07:04:44.239Z,19.65
2018-01-14T07:05:44.225Z,19.72
2018-01-14T07:06:44.234Z,19.67
2018-01-14T07:07:44.230Z,19.80
2018-01-14T07:08:44.223Z,19.76
2018-01-14T07:10:05.231Z,19.58
2018-01-14T07:10:44.220Z,19.72
2018-01-14T07:11:44.215Z,19.71
2018-01-14T07:12:44.216Z,19.72
2018-01-14T07:13:44.208Z,19.67
2018-01-14T07:14:44.208Z,19.72
2018-01-14T07:16:05.210Z,19.64
2018-01-14T07:16:44.193Z,19.72
2018-01-14T07:17:44.197Z,19.70
2018-01-14T07:18:44.199Z,19.61
2018-01-14T07:19:44.209Z,19.55
2018-01-14T07:20:44.185Z,19.60
2018-01-14T07:22:05.205Z,19.64
2018-01-14T07:22:44.193Z,19.67
2018-01-14T07:23:44.173Z,19.58
2018-01-14T07:24:44.200Z,19.60
2018-01-14T07:25:44.172Z,19.62
2018-01-14T07:26:44.160Z,19.58
2018-01-14T07:28:05.170Z,19.61
2018-01-14T07:28:44.161Z,19.64
2018-01-14T07:29:44.155Z,19.58
2018-01-14T07:30:44.148Z,19.57
2018-01-14T07:31:44.153Z,19.61
2018-01-14T07:32:44.141Z,19.61
2018-01-14T07:34:05.140Z,19.60
2018-01-14T07:34:44.135Z,19.50
2018-01-14T07:35:44.143Z,19.50
2018-01-14T07:36:44.142Z,19.55
2018-01-14T07:37:44.131Z,19.58
2018-01-14T07:38:44.132Z,19.57
2018-01-14T07:40:05.132Z,19.57
2018-01-14T07:40:44.120Z,19.61
2018-01-14T07:41:44.105Z,19.49
2018-01-14T07:42:44.111Z,19.45
2018-01-14T07:43:44.115Z,19.55
2018-01-14T07:44:44.124Z,19.52
2018-01-14T07:46:05.107Z,19.50
2018-01-14T07:46:44.101Z,19.50
2018-01-14T07:47:44.090Z,19.55
2018-01-14T07:48:44.101Z,19.49
2018-01-14T07:49:44.092Z,19.46
2018-01-14T07:50:44.082Z,19.50
2018-01-14T07:52:05.080Z,19.43
2018-01-14T07:52:44.081Z,19.49
2018-01-14T07:53:44.066Z,19.53
2018-01-14T07:54:44.070Z,19.50
2018-01-14T07:55:44.074Z,19.55
2018-01-14T07:56:44.060Z,19.46
2018-01-14T07:58:05.071Z,19.50
2018-01-14T07:58:44.062Z,19.49
2018-01-14T07:59:44.062Z,19.50
2018-01-14T08:00:44.057Z,19.52
2018-01-14T08:01:44.054Z,19.46
2018-01-14T08:02:44.049Z,19.47
2018-01-14T08:04:05.050Z,19.46
2018-01-14T08:04:44.037Z,19.43
2018-01-14T08:05:44.034Z,19.49
2018-01-14T08:06:44.034Z,19.50
2018-01-14T08:07:44.035Z,19.52
2018-01-14T08:08:44.022Z,19.61
2018-01-14T08:10:05.024Z,19.61
2018-01-14T08:10:44.020Z,19.47
2018-01-14T08:11:44.022Z,19.52
2018-01-14T08:12:44.005Z,19.60
2018-01-14T08:13:44.003Z,19.61
2018-01-14T08:14:43.998Z,19.58
2018-01-14T08:16:05.005Z,19.71
2018-01-14T08:16:43.994Z,19.71
2018-01-14T08:17:43.991Z,19.71
2018-01-14T08:18:43.990Z,19.65
2018-01-14T08:19:43.976Z,19.72
2018-01-14T08:20:43.974Z,19.83
2018-01-14T08:22:04.989Z,19.76
2018-01-14T08:22:43.974Z,19.80
2018-01-14T08:23:43.992Z,19.80
2018-01-14T08:24:43.977Z,19.78
2018-01-14T08:25:43.973Z,19.82
2018-01-14T08:26:43.969Z,19.89
2018-01-14T08:28:04.968Z,19.94
2018-01-14T08:28:43.955Z,20.02
2018-01-14T08:29:43.951Z,20.05
2018-01-14T08:30:43.953Z,20.17
2018-01-14T08:31:43.941Z,20.19
2018-01-14T08:32:43.938Z,20.17
2018-01-14T08:34:04.966Z,20.25
2018-01-14T08:34:43.946Z,20.19
2018-01-14T08:35:43.935Z,20.22
2018-01-14T08:36:43.952Z,20.22
2018-01-14T08:37:43.909Z,20.20
2018-01-14T08:38:43.937Z,20.23
2018-01-14T08:40:04.946Z,20.30
2018-01-14T08:40:43.923Z,20.23
2018-01-14T08:41:43.904Z,20.31
2018-01-14T08:42:43.907Z,20.34
2018-01-14T08:43:43.917Z,20.31
2018-01-14T08:44:43.902Z,20.37
2018-01-14T08:46:04.902Z,20.37
2018-01-14T08:46:43.900Z,20.35
2018-01-14T08:47:43.885Z,20.31
2018-01-14T08:48:43.881Z,20.30
2018-01-14T08:49:43.880Z,20.27
2018-01-14T08:50:43.896Z,20.19
2018-01-14T08:52:04.885Z,20.26
2018-01-14T08:52:43.867Z,20.22
2018-01-14T08:53:43.873Z,20.31
2018-01-14T08:54:43.869Z,20.25
2018-01-14T08:55:43.842Z,20.26
2018-01-14T08:56:43.853Z,20.26
2018-01-14T08:58:04.866Z,20.31
2018-01-14T08:58:43.861Z,20.26
2018-01-14T08:59:43.851Z,20.31
2018-01-14T09:00:43.857Z,20.42
2018-01-14T09:01:43.858Z,20.35
2018-01-14T09:02:43.836Z,20.38
2018-01-14T09:04:04.843Z,20.27
2018-01-14T09:04:43.818Z,20.27
2018-01-14T09:05:43.835Z,20.35
2018-01-14T09:06:43.829Z,20.46
2018-01-14T09:07:43.822Z,20.40
2018-01-14T09:08:43.829Z,20.35
2018-01-14T09:10:04.829Z,20.41
2018-01-14T09:10:43.827Z,20.41
2018-01-14T09:11:43.816Z,20.46
2018-01-14T09:12:43.808Z,20.44
2018-01-14T09:13:43.798Z,20.53
2018-01-14T09:14:43.801Z,20.42
2018-01-14T09:16:04.807Z,20.41
2018-01-14T09:16:43.792Z,20.60
2018-01-14T09:17:43.800Z,20.58
2018-01-14T09:18:43.787Z,20.57
2018-01-14T09:19:43.789Z,20.57
2018-01-14T09:20:43.786Z,20.61
2018-01-14T09:22:04.794Z,20.58
2018-01-14T09:22:43.801Z,20.61
2018-01-14T09:23:43.773Z,20.60
2018-01-14T09:24:43.778Z,20.56
2018-01-14T09:25:43.766Z,20.64
2018-01-14T09:26:43.766Z,20.58
2018-01-14T09:28:04.767Z,20.58
2018-01-14T09:28:43.749Z,20.64
2018-01-14T09:29:43.781Z,20.76
2018-01-14T09:30:43.762Z,20.85
2018-01-14T09:31:43.765Z,20.64
2018-01-14T09:32:43.752Z,20.72
2018-01-14T09:34:04.752Z,20.71
2018-01-14T09:34:43.731Z,20.75
2018-01-14T09:35:43.757Z,20.75
2018-01-14T09:36:43.734Z,20.79
2018-01-14T09:37:43.728Z,20.76
2018-01-14T09:38:43.728Z,20.76
2018-01-14T09:40:04.742Z,20.73
2018-01-14T09:40:43.723Z,20.81
2018-01-14T09:41:43.718Z,20.91
2018-01-14T09:42:43.722Z,20.90
2018-01-14T09:43:43.713Z,20.88
2018-01-14T09:44:43.709Z,20.85
2018-01-14T09:46:04.713Z,20.88
2018-01-14T09:46:43.693Z,20.83
2018-01-14T09:47:43.694Z,20.83
2018-01-14T09:48:43.717Z,20.87
2018-01-14T09:49:43.689Z,20.82
2018-01-14T09:50:43.689Z,20.94
2018-01-14T09:52:04.689Z,20.90
2018-01-14T09:52:43.695Z,20.91
2018-01-14T09:53:43.717Z,20.85
2018-01-14T09:54:43.684Z,21.03
2018-01-14T09:55:43.681Z,21.03
2018-01-14T09:56:43.669Z,20.96
2018-01-14T09:58:04.702Z,20.98
2018-01-14T09:58:43.672Z,21.03
2018-01-14T09:59:43.668Z,20.97
2018-01-14T10:00:43.678Z,20.97
2018-01-14T10:01:43.658Z,21.01
2018-01-14T10:02:43.670Z,20.94
2018-01-14T10:04:04.657Z,21.00
2018-01-14T10:04:43.673Z,21.03
2018-01-14T10:05:43.669Z,21.01
2018-01-14T10:06:43.647Z,21.03
2018-01-14T10:07:43.648Z,21.05
2018-01-14T10:08:43.640Z,21.05
2018-01-14T10:10:04.646Z,21.03
2018-01-14T10:10:43.634Z,21.03
2018-01-14T10:11:43.643Z,21.06
2018-01-14T10:12:43.632Z,21.11
2018-01-14T10:13:43.621Z,21.01
2018-01-14T10:14:43.633Z,21.12
2018-01-14T10:16:04.619Z,21.08
2018-01-14T10:16:43.614Z,21.00
2018-01-14T10:17:43.663Z,21.12
2018-01-14T10:18:43.623Z,21.01
2018-01-14T10:19:43.598Z,21.09
2018-01-14T10:20:43.665Z,21.16
2018-01-14T10:22:04.608Z,21.11
2018-01-14T10:22:43.608Z,21.06
2018-01-14T10:23:43.597Z,21.01
2018-01-14T10:24:43.590Z,21.12
2018-01-14T10:25:43.590Z,21.19
2018-01-14T10:26:43.590Z,21.12
2018-01-14T10:28:04.598Z,21.21
2018-01-14T10:28:43.593Z,21.19
2018-01-14T10:29:43.584Z,21.15
2018-01-14T10:30:43.584Z,21.21
2018-01-14T10:31:43.578Z,21.21
2018-01-14T10:32:43.604Z,21.13
2018-01-14T10:34:04.594Z,21.15
2018-01-14T10:34:43.571Z,21.19
2018-01-14T10:35:43.565Z,21.22
2018-01-14T10:36:43.570Z,21.16
2018-01-14T10:37:43.559Z,21.18
2018-01-14T10:38:43.549Z,21.06
2018-01-14T10:40:04.558Z,21.13
2018-01-14T10:40:43.561Z,21.21
2018-01-14T10:41:43.554Z,21.13
2018-01-14T10:42:43.564Z,21.16
2018-01-14T10:43:43.548Z,21.15
2018-01-14T10:44:43.543Z,21.13
2018-01-14T10:46:04.550Z,21.19
2018-01-14T10:46:43.548Z,21.19
2018-01-14T10:47:43.571Z,21.22
2018-01-14T10:48:43.528Z,21.24
2018-01-14T10:49:43.537Z,21.21
2018-01-14T10:50:43.520Z,21.24
2018-01-14T10:52:04.527Z,21.18
2018-01-14T10:52:43.521Z,21.15
2018-01-14T10:53:43.526Z,21.16
2018-01-14T10:54:43.516Z,21.19
2018-01-14T10:55:43.508Z,21.24
2018-01-14T10:56:43.513Z,21.19
2018-01-14T10:58:04.520Z,21.08
2018-01-14T10:58:43.511Z,21.12
2018-01-14T10:59:43.503Z,21.06
2018-01-14T11:00:43.526Z,21.01
2018-01-14T11:01:43.504Z,21.06
2018-01-14T11:02:43.509Z,21.00
2018-01-14T11:04:04.521Z,20.97
2018-01-14T11:04:43.489Z,20.96
2018-01-14T11:05:43.498Z,21.00
2018-01-14T11:06:43.491Z,20.98
2018-01-14T11:07:43.480Z,21.01
2018-01-14T11:08:43.478Z,20.96
2018-01-14T11:10:04.485Z,20.91
2018-01-14T11:10:43.480Z,20.88
2018-01-14T11:11:43.474Z,20.91
2018-01-14T11:12:43.485Z,20.96
2018-01-14T11:13:43.468Z,20.93
2018-01-14T11:14:43.464Z,20.90
2018-01-14T11:16:04.472Z,20.82
2018-01-14T11:16:43.465Z,20.88
2018-01-14T11:17:43.461Z,20.82
2018-01-14T11:18:43.461Z,20.81
2018-01-14T11:19:43.449Z,20.83
2018-01-14T11:20:43.460Z,20.81
2018-01-14T11:22:04.450Z,20.82
2018-01-14T11:22:43.456Z,20.81
2018-01-14T11:23:43.453Z,20.78
2018-01-14T11:24:43.438Z,20.85
2018-01-14T11:25:43.437Z,20.82
2018-01-14T11:26:43.424Z,20.72
2018-01-14T11:28:04.430Z,20.87
2018-01-14T11:28:43.444Z,20.73
2018-01-14T11:29:43.425Z,20.73
2018-01-14T11:30:43.415Z,20.79
2018-01-14T11:31:43.416Z,20.76
2018-01-14T11:32:43.424Z,20.75
2018-01-14T11:34:04.424Z,20.82
2018-01-14T11:34:43.413Z,20.73
2018-01-14T11:35:43.405Z,20.76
2018-01-14T11:36:43.424Z,20.71
2018-01-14T11:37:43.402Z,20.71
2018-01-14T11:38:43.390Z,20.66
2018-01-14T11:40:04.399Z,20.71
2018-01-14T11:40:43.393Z,20.66
2018-01-14T11:41:43.390Z,20.64
2018-01-14T11:42:43.379Z,20.69
2018-01-14T11:43:43.389Z,20.63
2018-01-14T11:44:43.380Z,20.60
2018-01-14T11:46:04.391Z,20.61
2018-01-14T11:46:43.376Z,20.58
2018-01-14T11:47:43.383Z,20.60
2018-01-14T11:48:43.379Z,20.60
2018-01-14T11:49:43.370Z,20.57
2018-01-14T11:50:43.369Z,20.56
2018-01-14T11:52:04.360Z,20.57
2018-01-14T11:52:43.367Z,20.50
2018-01-14T11:53:43.370Z,20.54
2018-01-14T11:54:43.360Z,20.56
2018-01-14T11:55:43.341Z,20.53
2018-01-14T11:56:43.343Z,20.53
2018-01-14T11:58:04.356Z,20.60
2018-01-14T11:58:43.371Z,20.54
2018-01-14T11:59:43.329Z,20.56
2018-01-14T12:00:43.327Z,20.61
2018-01-14T12:01:43.332Z,20.57
2018-01-14T12:02:43.333Z,20.60
2018-01-14T12:04:04.342Z,20.60
2018-01-14T12:04:43.321Z,20.58
2018-01-14T12:05:43.334Z,20.57
2018-01-14T12:06:43.354Z,20.56
2018-01-14T12:07:43.320Z,20.61
2018-01-14T12:08:43.321Z,20.58
2018-01-14T12:10:04.338Z,20.58
2018-01-14T12:10:43.305Z,20.44
2018-01-14T12:11:43.301Z,20.56
2018-01-14T12:12:43.307Z,20.44
2018-01-14T12:13:43.290Z,20.48
2018-01-14T12:14:43.299Z,20.54
2018-01-14T12:16:04.296Z,20.44
2018-01-14T12:16:43.285Z,20.44
2018-01-14T12:17:43.287Z,20.42
2018-01-14T12:18:43.284Z,20.46
2018-01-14T12:19:43.285Z,20.44
2018-01-14T12:20:43.282Z,20.42
2018-01-14T12:22:04.282Z,20.41
2018-01-14T12:22:43.299Z,20.38
2018-01-14T12:23:43.279Z,20.40
2018-01-14T12:24:43.271Z,20.35
2018-01-14T12:25:43.260Z,20.44
2018-01-14T12:26:43.274Z,20.35
2018-01-14T12:28:04.275Z,20.30
2018-01-14T12:28:43.288Z,20.37
2018-01-14T12:29:43.286Z,20.35
2018-01-14T12:30:43.275Z,20.34
2018-01-14T12:31:43.235Z,20.31
2018-01-14T12:32:43.243Z,20.41
2018-01-14T12:34:04.262Z,20.26
2018-01-14T12:34:43.241Z,20.31
2018-01-14T12:35:43.225Z,20.25
2018-01-14T12:36:43.228Z,20.30
2018-01-14T12:37:43.222Z,20.22
2018-01-14T12:38:43.243Z,20.19
2018-01-14T12:40:04.233Z,20.17
2018-01-14T12:40:43.216Z,20.17
2018-01-14T12:41:43.256Z,20.16
2018-01-14T12:42:43.210Z,20.16
2018-01-14T12:43:43.237Z,20.17
2018-01-14T12:44:43.219Z,20.13
2018-01-14T12:46:04.209Z,20.10
2018-01-14T12:46:43.213Z,20.15
2018-01-14T12:47:43.202Z,20.15
2018-01-14T12:48:43.204Z,20.05
2018-01-14T12:49:43.196Z,20.13
2018-01-14T12:50:43.193Z,20.12
2018-01-14T12:52:04.196Z,20.17
2018-01-14T12:52:43.192Z,20.13